MET'MAP v2.0
soon released !

Expected late october,
this new version will be
more efficient, smarter,
and hosted on a brand new
server x3 powerfull...
...and still free !


Not compatible ?
Try the mobile version !

LOG IN : | Subscribe | Disclaimer | Who is Orbifly ? |
ICAO code :

TAF - EPKT Katowice - 31 May 2020 02:07 UTC - Data Source NOAA   


- Airport Elevation : 995 ft
- IATA code : KTW
- No reported NOTAMs.


EPKT - Katowice

Latest METAR recorded : 2015/08/11 08:00 EPKT 110800Z 09004KT 030V160 CAVOK 30/17 Q1016
TAF TAF EPKT
Valid from the 31 at 00:00 until the 01 at 00:00 UTC


302330Z 3100/3124 34015G25KT 9999 BKN030
TEMPO 3100/3110 4000 RA BR BKN004 BKN010
PROB30
TEMPO 3102/3106 2000 +RA BR
BECMG 3113/3115 02010KT

Source NOAA


MET'MAP, your aeronautical weather chart ! - Copyright ORBIFLY December 2007

Programming & Development : Alexandra Zaïnal
Co-Developer : Marc-Olivier Méhu
Technical & hardware support : Manuel Goepfert
Concept & Financing : Baudouin d'Aumeries